This is the latest recevied weather packets stored in our database for station/object WX6HNX-5. If no packets are shown the sender has not sent any weather packets the latest 10 day(s).
| Time | Temp. | Humidity | Pressure | Rain* | Wind** | Luminosity | Snow |
|---|---|---|---|---|---|---|---|
| 1778133301 | 18.33° C | 61% | 1016.9 hPa | 0 mm | - | - | - |
| 1778133001 | 18.33° C | 61% | 1016.9 hPa | 0 mm | - | - | - |
| 1778132701 | 18.33° C | 61% | 1016.9 hPa | 0 mm | - | - | - |
| 1778132401 | 18.33° C | 60% | 1016.9 hPa | 0 mm | - | - | - |
| 1778132102 | 18.33° C | 59% | 1016.8 hPa | 0 mm | - | - | - |
| 1778131801 | 18.33° C | 58% | 1016.8 hPa | 0 mm | - | - | - |
| 1778131502 | 18.33° C | 57% | 1016.9 hPa | 0 mm | - | - | - |
| 1778131201 | 18.33° C | 58% | 1016.9 hPa | 0 mm | - | - | - |
| 1778130901 | 18.89° C | 60% | 1016.8 hPa | 0 mm | - | - | - |
| 1778130602 | 19.44° C | 60% | 1016.7 hPa | 0 mm | - | - | - |
| 1778130302 | 19.44° C | 60% | 1016.8 hPa | 0 mm | - | - | - |
| 1778130002 | 20° C | 59% | 1016.6 hPa | 0 mm | - | - | - |
| 1778129702 | 20° C | 60% | 1016.6 hPa | 0 mm | - | - | - |
| 1778129402 | 20° C | 59% | 1016.5 hPa | 0 mm | - | - | - |
| 1778129103 | 20.56° C | 59% | 1016.5 hPa | 0 mm | - | - | - |
| 1778128801 | 20.56° C | 59% | 1016.5 hPa | 0 mm | - | - | - |
| 1778128502 | 20.56° C | 59% | 1016.6 hPa | 0 mm | - | - | - |
| 1778128201 | 20.56° C | 58% | 1016.4 hPa | 0 mm | - | - | - |
| 1778127904 | 21.11° C | 58% | 1016.4 hPa | 0 mm | - | - | - |
| 1778127602 | 21.11° C | 58% | 1016.3 hPa | 0 mm | - | - | - |
| 1778127303 | 21.11° C | 57% | 1016.3 hPa | 0 mm | - | - | - |
| 1778127002 | 21.11° C | 57% | 1016.3 hPa | 0 mm | - | - | - |
| 1778126702 | 21.67° C | 57% | 1016.3 hPa | 0 mm | - | - | - |
| 1778106901 | 26.11° C | 41% | 1016 hPa | 0 mm | - | - | - |
| 1778105504 | 25.56° C | 42% | 1016.4 hPa | 0 mm | - | - | - |
* Rain latest hour (hover to see other rain measurements)
** Current wind speed in m/s (hover to see current wind gust speed)